PPIZ METAR and TAF weather

Enter ICAO airport designator
Station Type Date Time Source
PPIZ METAR 2019/05/30 23:56 UTC NOAA

PPIZ 302356Z AUTO 05022KT 10SM CLR 10/02 A3002 RMK AO2 PK WND 04027/2312 SLP169 T01000022 10100 20017 56016


Station Type Date Time Source
PPIZ Decoded METAR 2019/05/30 23:56 UTC NOAA

Point Lay, Point Lay LRRS Airport, AK, United States (PPIZ) 69-43N 163-00W
May 30, 2019 - 07:56 PM EDT / 2019.05.30 2356 UTC
Wind: from the NE (050 degrees) at 25 MPH (22 KT):0
Visibility: 10 mile(s):0
Sky conditions: clear
Temperature: 50.0 F (10.0 C)
Dew Point: 36.0 F (2.2 C)
Relative Humidity: 58%
Pressure (altimeter): 30.02 in. Hg (1016 hPa)
Pressure tendency: 0.05 inches (1.6 hPa) lower than three hours ago
ob: PPIZ 302356Z AUTO 05022KT 10SM CLR 10/02 A3002 RMK AO2 PK WND 04027/2312 SLP169 T01000022 10100 20017 56016
cycle: 0

Station Type Date Time Source
PPIZ TAF UTC NOAA

Error!

Example: see airport list